地図

経路データ

SID SEASON NUMBER BASIN SUBBASIN NAME ISO_TIME NATURE LAT LON WMO_WIND WMO_PRES WMO_AGENCY TRACK_TYPE DIST2LAND LANDFALL IFLAG USA_AGENCY USA_ATCF_ID USA_LAT USA_LON USA_RECORD USA_STATUS USA_WIND USA_PRES USA_SSHS USA_R34_NE USA_R34_SE USA_R34_SW USA_R34_NW USA_R50_NE USA_R50_SE USA_R50_SW USA_R50_NW USA_R64_NE USA_R64_SE USA_R64_SW USA_R64_NW USA_POCI USA_ROCI USA_RMW USA_EYE TOKYO_LAT TOKYO_LON TOKYO_GRADE TOKYO_WIND TOKYO_PRES TOKYO_R50_DIR TOKYO_R50_LONG TOKYO_R50_SHORT TOKYO_R30_DIR TOKYO_R30_LONG TOKYO_R30_SHORT TOKYO_LAND CMA_LAT CMA_LON CMA_CAT CMA_WIND CMA_PRES HKO_LAT HKO_LON HKO_CAT HKO_WIND HKO_PRES NEWDELHI_LAT NEWDELHI_LON NEWDELHI_GRADE NEWDELHI_WIND NEWDELHI_PRES NEWDELHI_CI NEWDELHI_DP NEWDELHI_POCI REUNION_LAT REUNION_LON REUNION_TYPE REUNION_WIND REUNION_PRES REUNION_TNUM REUNION_CI REUNION_RMW REUNION_R34_NE REUNION_R34_SE REUNION_R34_SW REUNION_R34_NW REUNION_R50_NE REUNION_R50_SE REUNION_R50_SW REUNION_R50_NW REUNION_R64_NE REUNION_R64_SE REUNION_R64_SW REUNION_R64_NW BOM_LAT BOM_LON BOM_TYPE BOM_WIND BOM_PRES BOM_TNUM BOM_CI BOM_RMW BOM_R34_NE BOM_R34_SE BOM_R34_SW BOM_R34_NW BOM_R50_NE BOM_R50_SE BOM_R50_SW BOM_R50_NW BOM_R64_NE BOM_R64_SE BOM_R64_SW BOM_R64_NW BOM_ROCI BOM_POCI BOM_EYE BOM_POS_METHOD BOM_PRES_METHOD NADI_LAT NADI_LON NADI_CAT NADI_WIND NADI_PRES WELLINGTON_LAT WELLINGTON_LON WELLINGTON_WIND WELLINGTON_PRES DS824_LAT DS824_LON DS824_STAGE DS824_WIND DS824_PRES TD9636_LAT TD9636_LON TD9636_STAGE TD9636_WIND TD9636_PRES TD9635_LAT TD9635_LON TD9635_WIND TD9635_PRES TD9635_ROCI NEUMANN_LAT NEUMANN_LON NEUMANN_CLASS NEUMANN_WIND NEUMANN_PRES MLC_LAT MLC_LON MLC_CLASS MLC_WIND MLC_PRES USA_GUST BOM_GUST BOM_GUST_PER REUNION_GUST REUNION_GUST_PER USA_SEAHGT USA_SEARAD_NE USA_SEARAD_SE USA_SEARAD_SW USA_SEARAD_NW STORM_SPEED STORM_DIR
1980126N08150 1980 35 WP MM DOM 1980-05-05 00:00:00 NR 8.10000 150.100 main 1181 1171 __________O___ -1 8.10000 150.100 0 8 271
1980126N08150 1980 35 WP MM DOM 1980-05-05 03:00:00 NR 8.10965 149.699 main 1171 1162 __________P___ -1 8.10965 149.699 0 8 271
1980126N08150 1980 35 WP MM DOM 1980-05-05 06:00:00 NR 8.11528 149.298 main 1162 1155 __________P___ -1 8.11528 149.298 0 8 270
1980126N08150 1980 35 WP MM DOM 1980-05-05 09:00:00 NR 8.11327 148.898 main 1155 1149 __________P___ -1 8.11327 148.898 0 8 269
1980126N08150 1980 35 WP MM DOM 1980-05-05 12:00:00 NR 8.10000 148.500 main 1149 1145 __________O___ -1 8.10000 148.500 0 8 267
1980126N08150 1980 35 WP MM DOM 1980-05-05 15:00:00 NR 8.07400 148.106 main 1145 1132 __________P___ -1 8.07400 148.106 0 8 266
1980126N08150 1980 35 WP MM DOM 1980-05-05 18:00:00 NR 8.04244 147.720 main 1132 1131 __________P___ -1 8.04244 147.720 0 8 265
1980126N08150 1980 35 WP MM DOM 1980-05-05 21:00:00 NR 8.01465 147.349 main 1131 1131 __________P___ -1 8.01465 147.349 0 7 267
1980126N08150 1980 35 WP MM DOM 1980-05-06 00:00:00 NR 8.00000 147.000 main 1131 1131 __________O___ -1 8.00000 147.000 0 7 270
1980126N08150 1980 35 WP MM DOM 1980-05-06 03:00:00 NR 8.01458 146.670 main 1131 1131 __________P___ -1 8.01458 146.670 0 6 274
1980126N08150 1980 35 WP MM DOM 1980-05-06 06:00:00 NR 8.04237 146.363 main 1132 1132 __________P___ -1 8.04237 146.363 0 6 276
1980126N08150 1980 35 WP MM DOM 1980-05-06 09:00:00 NR 8.07398 146.074 main 1144 1144 __________P___ -1 8.07398 146.074 0 6 276
1980126N08150 1980 35 WP MM DOM 1980-05-06 12:00:00 NR 8.10000 145.800 main 1146 1146 __________O___ -1 8.10000 145.800 0 5 274
1980126N08150 1980 35 WP MM DOM 1980-05-06 15:00:00 NR 8.10713 145.527 main 1149 1149 __________P___ -1 8.10713 145.527 0 5 271
1980126N08150 1980 35 WP MM DOM 1980-05-06 18:00:00 NR 8.10743 145.270 main 1152 1152 __________P___ -1 8.10743 145.270 0 5 270
1980126N08150 1980 35 WP MM DOM 1980-05-06 21:00:00 NR 8.10402 145.027 main 1156 1156 __________P___ -1 8.10402 145.027 0 5 269
1980126N08150 1980 35 WP MM DOM 1980-05-07 00:00:00 NR 8.10000 144.800 main 1160 1160 __________O___ -1 8.10000 144.800 0 4 269
1980126N08150 1980 35 WP MM DOM 1980-05-07 03:00:00 NR 8.09577 144.610 main 1164 1164 __________P___ -1 8.09577 144.610 0 4 269
1980126N08150 1980 35 WP MM DOM 1980-05-07 06:00:00 NR 8.09225 144.430 main 1168 1168 __________P___ -1 8.09225 144.430 0 4 270
1980126N08150 1980 35 WP MM DOM 1980-05-07 09:00:00 NR 8.09262 144.235 main 1173 1173 __________P___ -1 8.09262 144.235 0 4 315
1980126N08150 1980 35 WP MM DOM 1980-05-07 12:00:00 TS 8.40000 144.120 main 1208 1208 __O_______O___ -1 9.60000 144.600 0 19 1007 8.10000 144.000 0 6 315
1980126N08150 1980 35 WP MM DOM 1980-05-07 15:00:00 TS 8.51568 143.800 main 1227 1227 __P_______P___ -1 9.29520 143.990 0 19 1007 8.12592 143.705 0 8 276
1980126N08150 1980 35 WP MM DOM 1980-05-07 18:00:00 TS 8.49122 143.309 1004 tokyo main 1242 1234 _OO_______P___ -1 8.30000 142.800 2 1004 0 0 0 9.00000 143.400 0 19 1007 8.15745 143.368 0 9 265
1980126N08150 1980 35 WP MM DOM 1980-05-07 21:00:00 TS 8.42709 142.862 main 1234 1207 _PP_______P___ -1 8.31001 142.610 2 1004 0 0 8.72747 142.855 0 21 1005 8.18525 142.996 0 8 258
1980126N08150 1980 35 WP MM DOM 1980-05-08 00:00:00 TS 8.31538 142.492 1004 tokyo main 1207 1194 OOO______OO___ jtwc_wp WP031980 8.20000 142.600 20 -1 8.30000 142.400 2 1004 0 0 0 8.50000 142.400 1 23 1004 8.20000 142.600 TC 20 8.20000 142.600 1 20 7 256
1980126N08150 1980 35 WP MM DOM 1980-05-08 03:00:00 TS 8.25035 142.164 main 1194 1168 PPP______PP___ WP031980 8.20753 142.215 20 -1 8.25750 142.157 2 1004 0 0 8.33486 142.085 1 23 1003 8.20753 142.215 TC 20 8.20153 142.197 1 20 7 260
1980126N08150 1980 35 WP MM DOM 1980-05-08 06:00:00 TS 8.19721 141.816 1004 tokyo main 1168 1143 OOO______OP___ jtwc_wp WP031980 8.20000 141.800 20 -1 8.20000 141.900 2 1004 0 0 0 8.20000 141.800 1 23 1002 8.20000 141.800 TC 20 8.18745 141.773 1 20 7 261
1980126N08150 1980 35 WP MM DOM 1980-05-08 09:00:00 TS 8.13693 141.420 main 1143 1130 PPP______PP___ WP031980 8.16502 141.342 20 -1 8.15747 141.658 2 1004 0 0 8.04248 141.423 1 23 1002 8.16502 141.342 TC 20 8.15464 141.337 1 20 8 260
1980126N08150 1980 35 WP MM DOM 1980-05-08 12:00:00 TS 8.06000 141.020 1004 tokyo main 1130 1110 OOO______OO___ jtwc_wp WP031980 8.10000 140.900 20 -1 8.10000 141.400 2 1004 0 0 0 7.90000 141.000 1 23 1002 8.10000 140.900 TC 20 8.10000 140.900 1 20 8 256
1980126N08150 1980 35 WP MM DOM 1980-05-08 15:00:00 TS 7.94809 140.655 main 1100 1078 PPP______PP___ WP031980 8.00736 140.558 20 -1 7.99998 141.115 2 1004 0 0 7.77745 140.565 1 23 1002 8.00736 140.558 TC 20 7.94828 140.478 1 21 8 253
1980126N08150 1980 35 WP MM DOM 1980-05-08 18:00:00 TS 7.83746 140.271 1004 tokyo main 1078 1050 OOO______OP___ jtwc_wp WP031980 7.90000 140.200 20 -1 7.90000 140.800 2 1004 0 0 0 7.70000 140.100 1 23 1002 7.90000 140.200 TC 20 7.78729 140.057 1 22 8 255
1980126N08150 1980 35 WP MM DOM 1980-05-08 21:00:00 TS 7.72898 139.842 main 1046 1028 PPP______PP___ WP031980 7.74001 139.722 22 -1 7.81974 140.525 2 1004 0 0 7.66247 139.607 1 26 1002 7.74001 139.722 TC 22 7.68266 139.631 1 23 9 262
1980126N08150 1980 35 WP MM DOM 1980-05-09 00:00:00 TS 7.71429 139.367 1004 tokyo main 1028 1019 OOOO_____OO___ jtwc_wp WP031980 7.70000 139.200 25 -1 7.80000 140.100 2 1004 0 0 0 7.70000 139.100 1 29 1002 7.60000 139.500 TD 30 1004 7.70000 139.200 TC 25 7.70000 139.200 1 25 10 278
1980126N08150 1980 35 WP MM DOM 1980-05-09 03:00:00 TS 7.86672 138.831 main 1026 1023 PPPP_____PP___ WP031980 7.92500 138.685 25 -1 7.85547 139.300 2 1004 0 0 7.81997 138.593 1 29 1002 7.61755 139.110 TD 30 1004 7.92500 138.685 TC 25 7.93274 138.754 1 25 11 291
1980126N08150 1980 35 WP MM DOM 1980-05-09 06:00:00 TS 8.11520 138.318 1004 tokyo main 1030 1030 OOOO_____OP___ jtwc_wp WP031980 8.30000 138.200 25 -1 8.00000 138.500 2 1004 0 0 0 8.00000 138.100 1 29 1002 7.70000 138.700 TD 30 1004 8.30000 138.200 TC 25 8.28742 138.301 1 25 11 300
1980126N08150 1980 35 WP MM DOM 1980-05-09 09:00:00 TS 8.39004 137.904 main 1051 1048 PPPP_____PP___ WP031980 8.68491 137.785 25 -1 8.21215 138.105 2 1004 0 0 8.16243 137.642 1 29 1002 7.89748 138.257 TD 30 1004 8.68491 137.785 TC 25 8.69838 137.847 1 25 10 307
1980126N08150 1980 35 WP MM DOM 1980-05-09 12:00:00 TS 8.73333 137.500 1004 tokyo main 1074 1074 OOOO_____OO___ jtwc_wp WP031980 9.10000 137.400 25 -1 8.50000 137.800 2 1004 0 0 0 8.40000 137.200 1 29 1002 8.20000 137.800 TD 30 1004 9.10000 137.400 TC 25 9.10000 137.400 1 25 11 311
1980126N08150 1980 35 WP MM DOM 1980-05-09 15:00:00 TS 9.11094 137.071 main 1110 1109 PPPP_____PP___ WP031980 9.53742 137.008 27 -1 8.82752 137.322 2 1004 0 0 8.76998 136.743 1 29 1002 8.58490 137.365 TD 30 1004 9.53742 137.008 TC 27 9.40843 136.980 1 26 11 311
1980126N08150 1980 35 WP MM DOM 1980-05-09 18:00:00 TS 9.48242 136.627 1004 tokyo main 1118 1081 OOOO_____OP___ jtwc_wp WP031980 9.90000 136.600 30 -1 9.20000 136.800 2 1004 0 0 0 9.20000 136.300 1 29 1002 9.00000 136.900 TD 30 1004 9.90000 136.600 TC 30 9.69454 136.565 1 27 11 308
1980126N08150 1980 35 WP MM DOM 1980-05-09 21:00:00 TS 9.79802 136.169 main 1081 1033 PPPP_____PP___ WP031980 10.1025 136.157 30 -1 9.62989 136.308 2 1004 0 0 9.63742 135.893 1 29 1001 9.35751 136.357 TD 30 1004 10.1025 136.157 TC 30 9.95839 136.142 1 28 11 302
1980126N08150 1980 35 WP MM DOM 1980-05-10 00:00:00 TS 10.0500 135.700 1004 tokyo main 1035 996 OOOO_____OO___ jtwc_wp WP031980 10.2000 135.700 30 -1 10.0000 135.800 2 1004 0 0 0 10.0000 135.500 1 29 1000 9.70000 135.800 TD 30 1004 10.2000 135.700 TC 30 10.2000 135.700 1 30 10 294
1980126N08150 1980 35 WP MM DOM 1980-05-10 03:00:00 TS 10.2050 135.246 main 985 947 PPPP_____PP___ WP031980 10.2199 135.265 30 -1 10.1423 135.279 2 1003 0 0 10.1498 135.130 1 29 1000 10.0648 135.307 TD 30 1003 10.2199 135.265 TC 30 10.4336 135.230 1 30 10 289
1980126N08150 1980 35 WP MM DOM 1980-05-10 06:00:00 TS 10.3741 134.756 1002 tokyo main 949 892 OOOO_____OP___ jtwc_wp WP031980 10.3000 134.800 30 -1 10.3000 134.700 2 1002 0 0 0 10.3000 134.700 1 29 1000 10.4000 134.800 TD 30 1002 10.3000 134.800 TC 30 10.6447 134.737 1 30 12 296
1980126N08150 1980 35 WP MM DOM 1980-05-10 09:00:00 TS 10.7056 134.188 main 892 835 PPPP_____PP___ WP031980 10.6349 134.288 30 -1 10.7577 133.993 2 1002 0 0 10.7001 134.115 1 29 999 10.6725 134.215 TD 30 1002 10.6349 134.288 TC 30 10.8335 134.226 1 30 13 300
1980126N08150 1980 35 WP MM DOM 1980-05-10 12:00:00 TS 11.0333 133.583 1002 tokyo main 835 777 OOOO_____OO___ jtwc_wp WP031980 11.0000 133.700 30 -1 11.2000 133.300 2 1002 0 0 0 11.1000 133.500 1 29 999 10.9000 133.600 TD 30 1002 11.0000 133.700 TC 30 11.0000 133.700 1 30 13 293
1980126N08150 1980 35 WP MM DOM 1980-05-10 15:00:00 TS 11.2082 132.980 main 777 718 PPPP_____PP___ WP031980 11.1877 132.977 32 -1 11.3448 132.762 2 1002 0 0 11.2798 132.992 1 29 999 11.1148 133.007 TD 30 1002 11.1877 132.977 TC 32 11.1342 133.164 1 32 12 284
1980126N08150 1980 35 WP MM DOM 1980-05-10 18:00:00 TS 11.3250 132.402 1002 tokyo main 718 667 OOOO_____OP___ jtwc_wp WP031980 11.3000 132.300 35 0 11.4000 132.300 2 1002 0 0 0 11.4000 132.500 1 29 999 11.3000 132.400 TD 30 1002 11.3000 132.300 TC 35 11.2498 132.614 1 35 11 283
1980126N08150 1980 35 WP MM DOM 1980-05-10 21:00:00 TS 11.4595 131.887 main 668 614 PPPP_____PP___ WP031980 11.3996 131.877 37 0 11.5424 131.842 2 1000 0 0 11.5999 131.958 1 33 997 11.4502 131.712 TD 30 1001 11.3996 131.877 TC 37 11.3654 132.058 1 37 10 286
1980126N08150 1980 35 WP MM DOM 1980-05-11 00:00:00 TS 11.6000 131.400 998 tokyo main 614 561 OOOO_____OO___ jtwc_wp WP031980 11.5000 131.500 40 0 11.7000 131.400 2 998 0 0 0 11.8000 131.400 2 38 995 11.6000 131.100 TD 30 1000 11.5000 131.500 TC 40 11.5000 131.500 2 40 10 287
1980126N08150 1980 35 WP MM DOM 1980-05-11 03:00:00 TS 11.7495 130.907 main 561 511 PPPP_____PP___ WP031980 11.6275 130.972 42 0 11.8423 130.972 2 996 0 0 11.9424 130.850 2 38 994 11.7997 130.720 TD 35 997 11.6275 130.972 TC 42 11.6577 130.958 2 42 10 288
1980126N08150 1980 35 WP MM DOM 1980-05-11 06:00:00 TS 11.9232 130.402 45 994 tokyo main 511 463 OOOO_____OP___ jtwc_wp WP031980 11.8000 130.400 45 0 12.0000 130.500 3 45 994 0 9 100 100 0 12.1000 130.300 2 38 993 12.0000 130.400 TS 40 995 11.8000 130.400 TC 45 11.8394 130.414 2 45 11 290
1980126N08150 1980 35 WP MM DOM 1980-05-11 09:00:00 TS 12.1230 129.882 main 463 418 PPPP_____PP___ WP031980 12.0198 129.865 47 0 12.1775 129.922 3 45 993 0 9 100 100 12.3348 129.757 2 43 991 12.1347 130.017 TS 42 992 12.0198 129.865 TC 47 12.0514 129.864 2 47 12 293
1980126N08150 1980 35 WP MM DOM 1980-05-11 12:00:00 TS 12.3667 129.317 45 992 tokyo main 412 350 OOOO_____OO___ jtwc_wp WP031980 12.3000 129.300 50 0 12.4000 129.300 3 45 992 0 9 100 100 0 12.6000 129.200 3 48 990 12.3000 129.500 TS 45 990 12.3000 129.300 TC 50 12.3000 129.300 2 50 13 295
1980126N08150 1980 35 WP MM DOM 1980-05-11 15:00:00 TS 12.6620 128.672 main 352 285 PPPP_____PP___ WP031980 12.6426 128.650 52 0 12.6848 128.715 3 47 991 0 9 100 100 12.8500 128.592 3 48 989 12.5629 128.730 TS 45 990 12.6426 128.650 TC 52 12.5891 128.694 2 52 14 296
1980126N08150 1980 35 WP MM DOM 1980-05-11 18:00:00 TS 12.9854 128.013 50 990 tokyo main 285 240 OOOO_____OP___ jtwc_wp WP031980 13.0000 128.000 55 0 13.0000 128.100 4 50 990 0 9 100 100 0 13.1000 128.000 3 48 988 12.9000 127.900 TS 45 990 13.0000 128.000 TC 55 12.9126 128.078 2 55 14 297
1980126N08150 1980 35 WP MM DOM 1980-05-11 21:00:00 TS 13.3057 127.397 main 240 218 PPPP_____PP___ WP031980 13.3148 127.427 57 0 13.2927 127.377 4 50 987 0 9 100 75 13.3423 127.492 3 53 986 13.3149 127.183 TS 47 987 13.3148 127.427 TC 57 13.2548 127.472 2 57 13 299
1980126N08150 1980 35 WP MM DOM 1980-05-12 00:00:00 TS 13.6167 126.833 50 985 tokyo main 210 195 OOOO_____OO___ jtwc_wp WP031980 13.6000 126.900 60 0 13.6000 126.700 4 50 985 0 8 100 50 0 13.6000 127.000 3 58 985 13.7000 126.600 STS 50 985 13.6000 126.900 TC 60 13.6000 126.900 2 60 12 300
1980126N08150 1980 35 WP MM DOM 1980-05-12 03:00:00 TS 13.8939 126.330 main 196 163 PPPP_____PP___ WP031980 13.8349 126.385 62 0 13.9572 126.205 4 52 982 0 8 110 50 13.8775 126.450 3 58 982 13.9222 126.197 STS 50 982 13.8349 126.385 TC 62 13.9369 126.357 2 62 11 301
1980126N08150 1980 35 WP MM DOM 1980-05-12 06:00:00 TS 14.1787 125.875 55 980 tokyo main 165 131 OOOO_____OP___ jtwc_wp WP031980 14.1000 125.900 65 1 14.3000 125.800 4 55 980 9 30 30 8 120 50 0 14.2000 125.900 3 58 980 14.1000 125.900 STS 50 980 14.1000 125.900 TC 65 14.2722 125.853 2 65 11 305
1980126N08150 1980 35 WP MM DOM 1980-05-12 09:00:00 TS 14.5085 125.432 main 127 124 PPPP_____PP___ WP031980 14.4925 125.428 67 1 14.5500 125.377 4 57 977 9 45 25 8 130 55 14.5850 125.363 3 63 977 14.3349 125.600 STS 50 977 14.4925 125.428 TC 67 14.5964 125.397 2 67 11 309
1980126N08150 1980 35 WP MM DOM 1980-05-12 12:00:00 TS 14.8500 125.033 60 975 tokyo main 125 119 OOOO_____OO___ jtwc_wp WP031980 14.9000 125.000 70 1 14.8000 125.000 4 60 975 8 60 20 8 140 60 0 15.0000 124.900 4 68 975 14.6000 125.300 STS 50 975 14.9000 125.000 TC 70 14.9000 125.000 4 70 10 313
1980126N08150 1980 35 WP MM DOM 1980-05-12 15:00:00 TS 15.1847 124.674 main 141 138 PPPP_____PP___ WP031980 15.2299 124.612 72 1 15.1499 124.670 4 60 972 8 60 25 8 140 75 15.4299 124.547 4 68 973 14.8850 124.957 STS 52 972 15.2299 124.612 TC 72 15.1833 124.647 4 72 9 315
1980126N08150 1980 35 WP MM DOM 1980-05-12 18:00:00 TS 15.4908 124.375 60 970 tokyo main 168 167 OOOO_____OP___ jtwc_wp WP031980 15.5000 124.300 75 1 15.5000 124.400 4 60 970 8 60 30 8 140 90 0 15.8000 124.300 4 68 972 15.2000 124.600 STS 55 970 15.5000 124.300 TC 75 15.4445 124.352 4 75 8 317
1980126N08150 1980 35 WP MM DOM 1980-05-12 21:00:00 TS 15.7455 124.131 main 190 180 PPPP_____PP___ WP031980 15.7149 124.070 77 1 15.7574 124.185 4 65 967 8 60 45 8 145 90 16.0374 124.127 4 68 968 15.5650 124.228 STS 60 967 15.7149 124.070 TC 77 15.6835 124.106 4 77 6 318
1980126N08150 1980 35 WP MM DOM 1980-05-13 00:00:00 TS 15.9667 123.933 70 965 tokyo main 180 159 OOOO_____OO___ jtwc_wp WP031980 15.9000 123.900 80 1 16.0000 124.000 5 70 965 9 60 60 8 150 90 0 16.2000 124.000 4 68 965 15.9000 123.900 T 65 965 15.9000 123.900 TC 80 15.9000 123.900 4 80 6 320
1980126N08150 1980 35 WP MM DOM 1980-05-13 03:00:00 TS 16.1850 123.751 main 159 129 PPPP_____PP___ WP031980 16.1075 123.742 85 2 16.3150 123.793 5 70 962 9 60 60 8 150 90 16.3575 123.850 4 72 963 16.1224 123.670 T 67 962 16.1075 123.742 TC 85 16.1004 123.710 4 81 5 322
1980126N08150 1980 35 WP MM DOM 1980-05-13 06:00:00 TS 16.3800 123.592 70 960 tokyo main 129 105 OOOO_____OP___ jtwc_wp WP031980 16.3000 123.600 90 2 16.6000 123.600 5 70 960 9 60 60 8 150 90 0 16.5000 123.700 4 77 961 16.3000 123.500 T 70 960 16.3000 123.600 TC 90 16.2798 123.555 4 82 5 321
1980126N08150 1980 35 WP MM DOM 1980-05-13 09:00:00 TS 16.5482 123.439 main 105 88 PPPP_____PP___ WP031980 16.4575 123.442 87 2 16.7725 123.442 5 77 960 9 65 50 8 155 95 16.6425 123.550 4 82 958 16.5150 123.335 T 72 957 16.4575 123.442 TC 87 16.4442 123.422 4 83 4 319
1980126N08150 1980 35 WP MM DOM 1980-05-13 12:00:00 TS 16.7000 123.300 85 960 tokyo main 88 74 OOOO_____OO___ jtwc_wp WP031980 16.6000 123.300 85 2 16.9000 123.300 5 85 960 8 70 40 8 160 100 0 16.8000 123.400 5 87 956 16.7000 123.200 T 75 955 16.6000 123.300 TC 85 16.6000 123.300 4 85 4 321
1980126N08150 1980 35 WP MM DOM 1980-05-13 15:00:00 TS 16.8595 123.174 main 74 63 PPPP_____PP___ WP031980 16.7500 123.200 82 1 17.0575 123.143 5 85 960 8 65 50 8 160 110 17.0150 123.250 5 87 958 16.8150 123.092 T 75 957 16.7500 123.200 TC 82 16.7694 123.160 4 82 4 323
1980126N08150 1980 35 WP MM DOM 1980-05-13 18:00:00 TS 17.0050 123.055 85 960 tokyo main 63 43 OOOO_____OP___ jtwc_wp WP031980 16.9000 123.100 80 1 17.2000 123.000 5 85 960 9 60 60 8 160 120 0 17.2000 123.100 5 87 960 16.9000 123.000 T 75 960 16.9000 123.100 TC 80 16.9300 123.028 4 80 4 318
1980126N08150 1980 35 WP MM DOM 1980-05-13 21:00:00 TS 17.1334 122.920 main 43 38 PPPP_____PP___ WP031980 17.0650 122.943 77 1 17.3150 122.885 5 77 962 9 55 55 8 155 135 17.2800 122.942 5 82 962 17.0000 122.900 T 72 962 17.0650 122.943 TC 77 17.0756 122.907 4 77 3 313
1980126N08150 1980 35 WP MM DOM 1980-05-14 00:00:00 TS 17.2333 122.800 70 965 tokyo main 38 31 OOOO_____OO___ jtwc_wp WP031980 17.2000 122.800 75 1 17.4000 122.800 5 70 965 9 50 50 9 150 150 0 17.3000 122.800 4 77 965 17.1000 122.800 T 70 965 17.2000 122.800 TC 75 17.2000 122.800 4 75 2 310
1980126N08150 1980 35 WP MM DOM 1980-05-14 03:00:00 TS 17.2910 122.719 main 31 31 PPPP_____PP___ WP031980 17.2575 122.742 70 1 17.4575 122.742 5 70 965 9 50 50 9 150 150 17.2925 122.692 4 72 967 17.1925 122.692 T 70 965 17.2575 122.742 TC 70 17.2884 122.702 4 70 2 307
1980126N08150 1980 35 WP MM DOM 1980-05-14 06:00:00 TS 17.3429 122.653 70 965 tokyo main 31 21 OOOO_____OP___ jtwc_wp WP031980 17.3000 122.700 65 1 17.5000 122.700 5 70 965 9 50 50 9 150 150 0 17.3000 122.600 4 68 970 17.3000 122.600 T 70 965 17.3000 122.700 TC 65 17.3575 122.620 4 65 2 314
1980126N08150 1980 35 WP MM DOM 1980-05-14 09:00:00 TS 17.4321 122.569 main 24 24 PPPP_____PP___ WP031980 17.3925 122.600 60 0 17.5425 122.650 5 70 972 9 50 50 9 150 137 17.3850 122.478 4 68 975 17.4575 122.535 T 67 967 17.3925 122.600 TC 60 17.4228 122.552 4 60 2 322
1980126N08150 1980 35 WP MM DOM 1980-05-14 12:00:00 TS 17.5333 122.500 70 980 tokyo main 24 24 OOOO_____OO___ jtwc_wp WP031980 17.5000 122.500 55 0 17.6000 122.600 5 70 980 9 50 50 8 150 125 0 17.5000 122.400 4 68 980 17.6000 122.500 T 65 970 17.5000 122.500 TC 55 17.5000 122.500 2 55 2 332
1980126N08150 1980 35 WP MM DOM 1980-05-14 15:00:00 TS 17.6211 122.467 main 35 35 PPPP_____PP___ WP031980 17.5925 122.435 52 0 17.6925 122.543 5 65 980 9 45 45 8 137 112 17.5925 122.435 4 63 981 17.6500 122.500 T 62 972 17.5925 122.435 TC 52 17.6065 122.453 2 52 2 346
1980126N08150 1980 35 WP MM DOM 1980-05-14 18:00:00 TS 17.7212 122.453 60 980 tokyo main 42 31 OOOO_____OP___ jtwc_wp WP031980 17.7000 122.400 50 0 17.8000 122.500 4 60 980 9 40 40 8 125 100 0 17.7000 122.500 3 58 982 17.7000 122.500 STS 60 975 17.7000 122.400 TC 50 17.7275 122.420 2 50 2 348
1980126N08150 1980 35 WP MM DOM 1980-05-14 21:00:00 TS 17.8537 122.436 main 30 23 PPPP_____PP___ WP031980 17.8425 122.392 47 0 17.9000 122.485 4 57 982 9 35 35 8 122 95 17.8425 122.500 3 58 983 17.8350 122.443 STS 57 977 17.8425 122.392 TC 47 17.8597 122.403 2 47 3 355
1980126N08150 1980 35 WP MM DOM 1980-05-15 00:00:00 TS 18.0000 122.433 55 985 tokyo main 23 21 OOOO_____OO___ jtwc_wp WP031980 18.0000 122.400 45 0 18.0000 122.500 4 55 985 9 30 30 8 120 90 0 18.0000 122.500 3 58 985 18.0000 122.400 STS 55 980 18.0000 122.400 TC 45 18.0000 122.400 2 45 3 0
1980126N08150 1980 35 WP MM DOM 1980-05-15 03:00:00 TS 18.1366 122.453 main 30 21 PPPP_____PP___ WP031980 18.1500 122.393 47 0 18.0850 122.543 4 55 987 9 30 30 8 120 90 18.1500 122.550 3 58 985 18.1500 122.442 STS 55 980 18.1500 122.393 TC 47 18.1347 122.398 2 47 3 11
1980126N08150 1980 35 WP MM DOM 1980-05-15 06:00:00 TS 18.2796 122.485 55 990 tokyo main 21 21 OOOO_____OP___ jtwc_wp WP031980 18.3000 122.400 50 0 18.2000 122.600 4 55 990 9 30 30 8 120 90 0 18.3000 122.600 3 58 985 18.3000 122.500 STS 55 980 18.3000 122.400 TC 50 18.2775 122.413 2 50 3 11
1980126N08150 1980 35 WP MM DOM 1980-05-15 09:00:00 TS 18.4273 122.513 main 21 21 PPPP_____PP___ WP031980 18.4350 122.443 52 0 18.3775 122.650 4 55 987 9 30 30 8 120 105 18.4425 122.600 3 53 987 18.4425 122.500 STS 52 980 18.4350 122.443 TC 52 18.4315 122.445 2 52 3 11
1980126N08150 1980 35 WP MM DOM 1980-05-15 12:00:00 TS 18.6000 122.550 55 985 tokyo main 38 38 OOOO_____OO___ jtwc_wp WP031980 18.6000 122.500 55 0 18.6000 122.700 4 55 985 9 30 30 9 120 120 0 18.6000 122.600 3 48 990 18.6000 122.500 STS 50 980 18.6000 122.500 TC 55 18.6000 122.500 2 55 4 10
1980126N08150 1980 35 WP MM DOM 1980-05-15 15:00:00 TS 18.8209 122.591 main 54 54 PPPP_____PP___ WP031980 18.8500 122.535 57 0 18.8500 122.750 4 52 982 9 9 120 120 18.7850 122.635 3 48 990 18.7925 122.535 STS 50 980 18.8500 122.535 TC 57 18.7977 122.554 2 57 5 12
1980126N08150 1980 35 WP MM DOM 1980-05-15 18:00:00 TS 19.0512 122.655 50 980 tokyo main 88 88 OOOO_____OP___ jtwc_wp WP031980 19.1000 122.600 60 0 19.1000 122.800 4 50 980 0 9 120 120 0 19.0000 122.700 3 48 990 19.0000 122.600 STS 50 980 19.1000 122.600 TC 60 19.0073 122.633 2 60 5 19
1980126N08150 1980 35 WP MM DOM 1980-05-15 21:00:00 TS 19.2514 122.746 main 109 109 PPPP_____PP___ WP031980 19.2650 122.735 62 0 19.3149 122.820 4 50 980 0 9 120 120 19.2425 122.778 3 48 985 19.2074 122.663 STS 50 980 19.2650 122.735 TC 62 19.2133 122.745 2 62 4 29
1980126N08150 1980 35 WP MM DOM 1980-05-16 00:00:00 TS 19.4333 122.883 50 980 tokyo main 128 128 OOOO_____OO___ jtwc_wp WP031980 19.4000 122.900 65 1 19.5000 122.900 4 50 980 0 9 120 120 0 19.5000 122.900 3 48 980 19.4000 122.800 STS 50 980 19.4000 122.900 TC 65 19.4000 122.900 4 65 5 40
1980126N08150 1980 35 WP MM DOM 1980-05-16 03:00:00 TS 19.6068 123.063 main 158 158 PPPP_____PP___ WP031980 19.5574 123.020 65 1 19.6575 123.113 4 52 977 0 9 135 135 19.7799 123.062 3 48 978 19.5501 123.070 STS 52 980 19.5574 123.020 TC 65 19.5384 123.091 4 65 5 50
1980126N08150 1980 35 WP MM DOM 1980-05-16 06:00:00 TS 19.7596 123.304 55 975 tokyo main 188 188 OOOO_____OP___ jtwc_wp WP031980 19.7000 123.200 65 1 19.8000 123.400 4 55 975 9 20 20 9 150 150 0 20.0000 123.300 3 48 977 19.7000 123.400 STS 55 980 19.7000 123.200 TC 65 19.6574 123.325 4 65 6 61
1980126N08150 1980 35 WP MM DOM 1980-05-16 09:00:00 TS 19.8863 123.607 main 216 216 PPPP_____PP___ WP031980 19.8000 123.513 65 1 19.9574 123.685 4 55 975 9 20 20 9 150 150 20.0801 123.643 3 53 977 19.9074 123.692 STS 55 980 19.8000 123.513 TC 65 19.7727 123.597 4 65 7 68
1980126N08150 1980 35 WP MM DOM 1980-05-16 12:00:00 TS 20.0000 123.950 55 975 tokyo main 252 252 OOOO_____OO___ jtwc_wp WP031980 19.9000 123.900 65 1 20.1000 124.000 4 55 975 9 20 20 9 150 150 0 20.1000 124.000 3 58 977 20.1000 124.000 STS 55 980 19.9000 123.900 TC 65 19.9000 123.900 4 65 7 71
1980126N08150 1980 35 WP MM DOM 1980-05-16 15:00:00 TS 20.1129 124.294 main 283 283 PPPP_____PP___ WP031980 20.0351 124.308 65 1 20.2075 124.350 4 55 975 9 20 20 9 150 150 20.1347 124.228 3 58 977 20.1999 124.335 STS 55 980 20.0351 124.308 TC 65 20.0649 124.233 4 63 7 70
1980126N08150 1980 35 WP MM DOM 1980-05-16 18:00:00 TS 20.2405 124.649 55 975 tokyo main 314 314 OOOO_____OP___ jtwc_wp WP031980 20.2000 124.700 65 1 20.3000 124.700 4 55 975 9 20 20 9 150 150 0 20.2000 124.500 3 58 977 20.3000 124.700 STS 55 980 20.2000 124.700 TC 65 20.2428 124.592 4 62 7 66
1980126N08150 1980 35 WP MM DOM 1980-05-16 21:00:00 TS 20.4074 125.014 main 360 360 PPPP_____PP___ WP031980 20.3999 125.023 62 0 20.3999 125.008 4 60 977 9 35 35 9 162 162 20.3202 124.977 3 58 975 20.5000 125.100 STS 57 977 20.3999 125.023 TC 62 20.4243 124.955 4 61 8 63
1980126N08150 1980 35 WP MM DOM 1980-05-17 00:00:00 TS 20.5833 125.367 65 980 tokyo main 407 407 OOOO_____OO___ jtwc_wp WP031980 20.6000 125.300 60 0 20.5000 125.300 5 65 980 9 50 50 9 175 175 0 20.5000 125.500 3 58 974 20.7000 125.500 STS 60 975 20.6000 125.300 TC 60 20.6000 125.300 2 60 7 62
1980126N08150 1980 35 WP MM DOM 1980-05-17 03:00:00 TS 20.7467 125.689 main 439 439 PPPP_____PP___ WP031980 20.7574 125.550 60 0 20.5999 125.600 5 65 980 9 50 50 9 175 175 20.7575 125.960 3 58 975 20.8225 125.873 STS 60 975 20.7574 125.550 TC 60 20.7853 125.601 2 58 7 62
1980126N08150 1980 35 WP MM DOM 1980-05-17 06:00:00 TS 20.8933 125.980 65 980 tokyo main 477 477 OOOO_____OP___ jtwc_wp WP031980 20.9000 125.800 60 0 20.7000 125.900 5 65 980 9 50 50 9 175 175 0 21.0000 126.300 3 58 977 20.9000 126.200 STS 60 975 20.9000 125.800 TC 60 20.9597 125.880 2 57 6 62
1980126N08150 1980 35 WP MM DOM 1980-05-17 09:00:00 TS 21.0215 126.239 main 501 501 PPPP_____PP___ WP031980 21.0650 126.100 57 0 20.8000 126.215 5 62 980 9 50 50 9 187 187 21.1372 126.408 3 58 977 20.9574 126.465 STS 60 975 21.0650 126.100 TC 57 21.1041 126.144 2 56 5 65
1980126N08150 1980 35 WP MM DOM 1980-05-17 12:00:00 TS 21.1167 126.483 60 980 tokyo main 533 533 OOOO_____OO___ jtwc_wp WP031980 21.2000 126.400 55 0 20.9000 126.500 4 60 980 9 50 50 9 200 200 0 21.2000 126.500 3 58 977 21.0000 126.700 STS 60 975 21.2000 126.400 TC 55 21.2000 126.400 2 55 5 71
1980126N08150 1980 35 WP MM DOM 1980-05-17 15:00:00 TS 21.1859 126.763 main 565 565 PPPP_____PP___ WP031980 21.2874 126.658 52 0 21.0225 126.737 4 57 980 9 45 45 9 175 175 21.2303 126.842 3 53 978 21.0500 126.958 STS 57 977 21.2874 126.658 TC 52 21.2377 126.727 2 52 5 80
1980126N08150 1980 35 WP MM DOM 1980-05-17 18:00:00 TS 21.2042 127.023 55 980 tokyo main 582 582 OOOO_____OP___ jtwc_wp WP031980 21.3000 126.900 50 0 21.1000 126.900 4 55 980 9 40 40 9 150 150 0 21.2000 127.200 3 48 980 21.1000 127.200 STS 55 980 21.3000 126.900 TC 50 21.2252 127.036 2 50 5 93
1980126N08150 1980 35 WP MM DOM 1980-05-17 21:00:00 TS 21.1658 127.249 main 600 600 PPPP_____PP___ WP031980 21.2301 127.210 47 0 21.0725 126.995 4 55 980 9 40 40 9 137 137 21.1374 127.395 3 48 982 21.1499 127.408 STS 55 980 21.2301 127.210 TC 47 21.1751 127.277 2 47 4 110
1980126N08150 1980 35 WP MM DOM 1980-05-18 00:00:00 TS 21.0833 127.383 55 980 tokyo main 613 607 OOOO_____OO___ jtwc_wp WP031980 21.1000 127.400 45 0 21.0000 127.000 4 55 980 9 40 40 9 125 125 0 21.0000 127.500 3 48 985 21.2000 127.600 STS 55 980 21.1000 127.400 TC 45 21.1000 127.400 2 45 2 146
1980126N08150 1980 35 WP MM DOM 1980-05-18 03:00:00 TS 20.9777 127.381 main 607 593 PPPP_____PP___ WP031980 20.9425 127.317 42 0 20.9500 126.922 4 55 982 9 40 40 9 125 125 20.7650 127.588 3 43 985 21.2650 127.800 STS 55 980 20.9425 127.317 TC 42 21.0012 127.343 2 42 2 201
1980126N08150 1980 35 WP MM DOM 1980-05-18 06:00:00 TS 20.8642 127.295 55 985 tokyo main 593 579 OOOO_____OP___ jtwc_wp WP031980 20.8000 127.100 40 0 20.9000 126.800 4 55 985 9 40 40 9 125 125 0 20.5000 127.600 2 38 985 21.3000 128.000 STS 55 980 20.8000 127.100 TC 40 20.8851 127.169 2 40 3 219
1980126N08150 1980 35 WP MM DOM 1980-05-18 09:00:00 TS 20.7706 127.194 main 579 564 PPPP_____PP___ WP031980 20.7350 126.900 37 0 20.8500 126.700 4 52 985 9 9 122 122 20.2699 127.552 2 38 987 21.2574 128.178 STS 52 982 20.7350 126.900 TC 37 20.7764 126.936 2 37 3 230
1980126N08150 1980 35 WP MM DOM 1980-05-18 12:00:00 MX 20.7000 127.083 50 985 tokyo main 564 555 OOOO_____OO___ jtwc_wp WP031980 20.7000 126.700 35 0 20.8000 126.600 4 50 985 0 9 120 120 0 20.1000 127.400 9 38 990 21.2000 128.400 STS 50 985 20.7000 126.700 TC 35 20.7000 126.700 2 35 2 230
1980126N08150 1980 35 WP MM DOM 1980-05-18 15:00:00 MX 20.6506 127.042 main 555 541 PPPP_____PP___ WP031980 20.6275 126.542 32 -1 20.7425 126.500 4 47 987 0 9 120 120 19.9900 127.145 9 33 992 21.2437 128.998 STS 47 987 20.6275 126.542 TC 32 20.6728 126.523 2 33 2 247
1980126N08150 1980 35 WP MM DOM 1980-05-18 18:00:00 MX 20.6304 126.909 45 990 tokyo main 541 504 OOOO_____OP___ jtwc_wp WP031980 20.6000 126.400 30 -1 20.7000 126.400 3 45 990 0 9 120 120 0 20.0000 126.800 9 29 995 21.2000 129.100 TS 45 990 20.6000 126.400 TC 30 20.6825 126.355 2 32 5 267
1980126N08150 1980 35 WP MM DOM 1980-05-18 21:00:00 MX 20.6233 126.516 main 504 474 PPPP_____PP___ WP031980 20.6775 126.243 30 -1 20.6925 126.285 3 42 990 0 9 110 110 20.1177 126.378 9 29 995 20.8485 127.737 TS 42 990 20.6775 126.243 TC 30 20.7260 126.210 2 31 7 273
1980126N08150 1980 35 WP MM DOM 1980-05-19 00:00:00 MX 20.6667 126.117 40 990 tokyo main 474 462 OOOO_____OO___ jtwc_wp WP031980 20.8000 126.100 30 -1 20.7000 126.200 3 40 990 0 9 100 100 0 20.4000 126.000 9 29 995 20.5000 126.200 TS 40 990 20.8000 126.100 TC 30 20.8000 126.100 1 30 6 288
1980126N08150 1980 35 WP MM DOM 1980-05-19 03:00:00 MX 20.7955 125.938 main 462 462 PPPP_____PP___ WP031980 20.8925 125.970 27 -1 20.6925 126.185 3 40 991 0 9 100 100 20.9299 125.768 9 29 996 20.4654 125.719 TS 37 990 20.8925 125.970 TC 27 20.9002 126.015 1 28 4 324
1980126N08150 1980 35 WP MM DOM 1980-05-19 06:00:00 MX 20.9546 125.895 40 992 tokyo main 475 475 OOOO_____OP___ jtwc_wp WP031980 21.0000 125.900 25 -1 20.7000 126.200 3 40 992 0 9 100 100 0 21.4000 125.700 9 29 998 20.6000 125.700 TS 35 990 21.0000 125.900 TC 25 21.0274 125.968 1 27 3 0
1980126N08150 1980 35 WP MM DOM 1980-05-19 09:00:00 MX 21.0780 125.926 main 482 482 PPPP_____PP___ WP031980 21.1500 125.920 25 -1 20.7350 126.200 3 40 993 0 9 100 100 21.4675 125.812 9 29 998 20.8000 125.740 TS 35 990 21.1500 125.920 TC 25 21.1658 125.962 1 26 3 25
1980126N08150 1980 35 WP MM DOM 1980-05-19 12:00:00 MX 21.1833 126.017 40 994 tokyo main 497 497 OOOO_____OO___ jtwc_wp WP031980 21.3000 126.000 25 -1 20.8000 126.200 3 40 994 0 9 100 100 0 21.4000 126.000 9 29 998 21.0000 125.900 TS 35 990 21.3000 126.000 TC 25 21.3000 126.000 1 25 2 40
1980126N08150 1980 35 WP MM DOM 1980-05-19 15:00:00 MX 21.2630 126.092 main 512 512 PPPP_____PP___ WP031980 21.4075 126.085 22 -1 20.8850 126.200 3 40 995 0 9 100 100 21.4425 126.107 9 29 998 21.0650 126.035 TS 32 992 21.4075 126.085 TC 22 21.3703 126.038 1 23 2 48
1980126N08150 1980 35 WP MM DOM 1980-05-19 18:00:00 MX 21.3253 126.186 40 996 tokyo main 521 521 OOOO_____OP___ jtwc_wp WP031980 21.5000 126.200 20 -1 21.0000 126.200 3 40 996 0 9 100 100 0 21.5000 126.200 9 29 998 21.1000 126.200 TD 30 995 21.5000 126.200 TC 20 21.4394 126.124 1 22 2 52
1980126N08150 1980 35 WP MM DOM 1980-05-19 21:00:00 MX 21.4027 126.288 main 536 536 PPPP_____PP___ WP031980 21.5975 126.342 20 -1 21.1349 126.148 3 37 997 0 9 100 100 21.5424 126.278 9 29 998 21.2000 126.400 TD 30 997 21.5975 126.342 TC 20 21.5389 126.273 1 21 3 53
1980126N08150 1980 35 WP MM DOM 1980-05-20 00:00:00 MX 21.5000 126.433 35 998 tokyo main 544 544 OOOO_____OO___ jtwc_wp WP031980 21.7000 126.500 20 -1 21.3000 126.200 3 35 998 0 9 100 100 0 21.6000 126.400 9 29 998 21.3000 126.600 TD 30 1000 21.7000 126.500 TC 20 21.7000 126.500 1 20 4 59
1980126N08150 1980 35 WP MM DOM 1980-05-20 03:00:00 MX 21.6136 126.668 main 570 566 _PPP______P___ WP031980 -1 21.4775 126.483 3 35 998 0 9 100 100 21.6626 126.643 9 29 999 21.3500 126.758 TD 30 1000 TC 21.9641 126.788 1 6 59
1980126N08150 1980 35 WP MM DOM 1980-05-20 06:00:00 MX 21.7972 126.969 35 998 tokyo main 593 590 _OOO______P___ -1 21.7000 126.900 3 35 998 0 9 100 100 0 21.8000 126.900 9 29 1000 21.4000 126.900 TD 30 1000 22.2895 127.157 1 7 53
1980126N08150 1980 35 WP MM DOM 1980-05-20 09:00:00 MX 22.0309 127.260 main 617 612 _PPP______P___ -1 21.9774 127.328 3 999 0 9 22.0624 127.077 9 26 1001 21.4542 126.946 TD 30 1000 22.6451 127.598 1 8 52
1980126N08150 1980 35 WP MM DOM 1980-05-20 12:00:00 MX 22.3077 127.662 1000 tokyo main 640 636 _OOO______O___ -1 22.3000 127.800 2 1000 0 0 0 22.4000 127.200 9 23 1002 21.6000 127.200 TD 30 1000 23.0000 128.100 6 11 58
1980126N08150 1980 35 WP MM DOM 1980-05-20 15:00:00 TS 22.6181 128.270 main 685 682 _P_P______P___ -1 22.6187 128.204 2 1001 0 0 9 21.9058 127.952 TD 30 1001 23.3296 128.653 6 14 61
1980126N08150 1980 35 WP MM DOM 1980-05-20 18:00:00 TS 22.9804 128.964 1002 tokyo main 741 741 _O_O______P___ -1 23.0000 128.800 2 1002 0 0 0 22.3000 128.900 TD 30 1002 23.6347 129.246 6 16 61
1980126N08150 1980 35 WP MM DOM 1980-05-20 21:00:00 TS 23.3955 129.815 main 810 792 _P_P______P___ -1 23.4786 129.824 2 1003 0 0 22.7024 129.745 TD 30 1003 23.9224 129.865 6 19 62
1980126N08150 1980 35 WP MM DOM 1980-05-21 00:00:00 TS 23.8833 130.833 1004 tokyo main 792 736 _O_O______O___ -1 24.0000 131.000 2 1004 0 0 0 23.1000 130.500 TD 30 1004 24.2000 130.500 6 23 61
1980126N08150 1980 35 WP MM DOM 1980-05-21 03:00:00 TS 24.4990 132.016 main 736 703 _P____________ -1 24.4990 132.016 2 1004 0 0 TD 6 23 60
1980126N08150 1980 35 WP MM DOM 1980-05-21 06:00:00 TS 25.0000 133.000 1004 tokyo main 706 689 _O____________ -1 25.0000 133.000 2 1004 0 0 0 6 21 61
1980126N08150 1980 35 WP MM DOM 1980-05-21 09:00:00 TS 25.4993 134.001 main 693 688 _P____________ -1 25.4993 134.001 2 1004 0 0 6 21 61
1980126N08150 1980 35 WP MM DOM 1980-05-21 12:00:00 TS 26.0000 135.000 1004 tokyo main 697 692 _O____________ -1 26.0000 135.000 2 1004 0 0 0 20 60
1980126N08150 1980 35 WP MM DOM 1980-05-21 15:00:00 TS 26.4985 135.964 main 706 703 _P____________ -1 26.4985 135.964 2 1004 0 0 21 61
1980126N08150 1980 35 WP MM DOM 1980-05-21 18:00:00 TS 27.0000 137.000 1004 tokyo main 723 694 _O____________ -1 27.0000 137.000 2 1004 0 0 0 22 63
1980126N08150 1980 35 WP MM DOM 1980-05-21 21:00:00 TS 27.5031 138.197 main 697 687 _P____________ -1 27.5031 138.197 2 1005 0 0 24 66
1980126N08150 1980 35 WP MM DOM 1980-05-22 00:00:00 TS 28.0000 139.500 1006 tokyo main 698 _O____________ -1 28.0000 139.500 2 1006 0 0 0 25 67

デジタル台風データ・検索

IBTrACS Databaseについて

本データベースは、米国NOAAが公開する1842年以降の世界の熱帯低気圧のベストトラックデータアーカイブInternational Best Track Archive for Climate Stewardship (IBTrACS)を、ウェブで閲覧しやすい形式に変換したものです。

最終更新日:2021-10-21